createdAt,value
2022-10-28T00:00:57.534Z,17.45
2022-10-28T00:03:25.426Z,17.23
2022-10-28T00:05:55.220Z,17.03
2022-10-28T00:08:24.612Z,16.80
2022-10-28T00:10:54.860Z,16.61
2022-10-28T00:13:23.018Z,16.48
2022-10-28T00:15:50.975Z,16.41
2022-10-28T00:18:18.927Z,16.48
2022-10-28T00:20:47.087Z,16.54
2022-10-28T00:23:15.112Z,16.61
2022-10-28T00:25:44.425Z,16.45
2022-10-28T00:28:12.483Z,16.34
2022-10-28T00:30:40.566Z,16.42
2022-10-28T00:33:08.749Z,16.38
2022-10-28T00:35:36.681Z,16.11
2022-10-28T00:38:04.662Z,16.09
2022-10-28T00:40:35.743Z,16.10
2022-10-28T00:43:05.192Z,16.00
2022-10-28T00:45:33.152Z,16.04
2022-10-28T00:48:03.331Z,16.01
2022-10-28T00:50:42.596Z,15.78
2022-10-28T00:53:16.243Z,15.76
2022-10-28T00:55:46.541Z,15.82
2022-10-28T00:58:16.873Z,15.82
2022-10-28T01:00:44.804Z,15.73
2022-10-28T01:03:12.748Z,15.63
2022-10-28T01:05:43.257Z,15.55
2022-10-28T01:08:11.808Z,15.48
2022-10-28T01:10:53.465Z,15.37
2022-10-28T01:13:35.369Z,15.35
2022-10-28T01:16:08.541Z,15.32
2022-10-28T01:18:47.729Z,15.31
2022-10-28T01:21:35.363Z,15.44
2022-10-28T01:24:18.915Z,15.44
2022-10-28T01:27:10.838Z,15.38
2022-10-28T01:29:57.332Z,15.41
2022-10-28T01:32:32.362Z,15.37
2022-10-28T01:35:08.733Z,15.32
2022-10-28T01:37:41.754Z,15.24
2022-10-28T01:40:15.220Z,15.19
2022-10-28T01:42:48.436Z,15.13
2022-10-28T01:45:21.038Z,15.11
2022-10-28T01:47:58.579Z,15.11
2022-10-28T01:50:30.514Z,15.11
2022-10-28T01:53:01.542Z,15.21
2022-10-28T01:55:34.488Z,15.16
2022-10-28T01:58:04.603Z,15.16
2022-10-28T02:00:34.057Z,15.08
2022-10-28T02:03:03.995Z,15.07
2022-10-28T02:05:39.938Z,15.03
2022-10-28T02:08:18.015Z,15.08
2022-10-28T02:10:58.937Z,15.06
2022-10-28T02:13:36.248Z,15.11
2022-10-28T02:16:09.835Z,15.17
2022-10-28T02:18:47.832Z,15.14
2022-10-28T02:21:21.778Z,15.07
2022-10-28T02:23:56.710Z,15.10
2022-10-28T02:26:34.726Z,15.02
2022-10-28T02:29:06.171Z,14.97
2022-10-28T02:31:38.630Z,14.97
2022-10-28T02:34:12.881Z,15.04
2022-10-28T02:36:45.885Z,14.99
2022-10-28T02:39:15.575Z,14.97
2022-10-28T02:41:49.868Z,15.00
2022-10-28T02:44:23.079Z,14.90
2022-10-28T02:46:53.864Z,14.88
2022-10-28T02:49:26.569Z,14.99
2022-10-28T02:51:59.187Z,14.96
2022-10-28T02:54:32.408Z,14.96
2022-10-28T02:57:04.604Z,14.99
2022-10-28T02:59:32.650Z,14.99
2022-10-28T03:02:00.663Z,15.02
2022-10-28T03:04:30.080Z,14.95
2022-10-28T03:06:58.037Z,14.89
2022-10-28T03:09:25.927Z,14.80
2022-10-28T03:11:53.901Z,14.72
2022-10-28T03:14:21.813Z,14.71
2022-10-28T03:16:49.965Z,14.71
2022-10-28T03:19:17.867Z,14.73
2022-10-28T03:21:47.171Z,14.68
2022-10-28T03:24:15.880Z,14.67
2022-10-28T03:26:43.819Z,14.62
2022-10-28T03:29:11.663Z,14.55
2022-10-28T03:31:40.086Z,14.75
2022-10-28T03:34:08.043Z,14.88
2022-10-28T03:36:35.979Z,15.13
2022-10-28T03:39:05.394Z,15.16
2022-10-28T03:41:33.534Z,15.48
2022-10-28T03:44:01.437Z,16.25
2022-10-28T03:46:31.137Z,16.65
2022-10-28T03:49:01.619Z,16.96
2022-10-28T03:51:29.731Z,17.45
2022-10-28T03:53:57.680Z,17.65
2022-10-28T03:56:26.990Z,17.68
2022-10-28T03:58:55.882Z,17.79
2022-10-28T04:01:23.974Z,17.68
2022-10-28T04:03:52.038Z,17.98
2022-10-28T04:06:20.008Z,17.96
2022-10-28T04:08:48.008Z,17.87
2022-10-28T04:11:15.955Z,17.63
2022-10-28T04:13:46.078Z,16.94
2022-10-28T04:16:14.011Z,16.35
2022-10-28T04:18:41.982Z,15.65
2022-10-28T04:21:10.676Z,15.40
2022-10-28T04:23:38.638Z,15.19
2022-10-28T04:26:07.075Z,15.11
2022-10-28T04:28:35.056Z,14.99
2022-10-28T04:31:04.529Z,14.92
2022-10-28T04:33:32.526Z,14.95
2022-10-28T04:36:00.434Z,14.96
2022-10-28T04:38:28.525Z,14.96
2022-10-28T04:40:56.722Z,15.02
2022-10-28T04:43:24.671Z,15.07
2022-10-28T04:45:53.280Z,15.14
2022-10-28T04:48:22.993Z,15.16
2022-10-28T04:50:51.220Z,15.06
2022-10-28T04:53:19.181Z,15.03
2022-10-28T04:55:47.130Z,14.95
2022-10-28T04:58:15.089Z,15.00
2022-10-28T05:00:43.020Z,15.02
2022-10-28T05:03:10.918Z,15.13
2022-10-28T05:05:40.883Z,15.51
2022-10-28T05:08:08.856Z,15.89
2022-10-28T05:10:36.809Z,16.06
2022-10-28T05:13:04.736Z,16.25
2022-10-28T05:15:32.658Z,16.27
2022-10-28T05:18:00.685Z,16.17
2022-10-28T05:20:28.662Z,16.10
2022-10-28T05:22:58.248Z,16.20
2022-10-28T05:25:26.510Z,16.54
2022-10-28T05:27:54.465Z,16.65
2022-10-28T05:30:22.570Z,16.79
2022-10-28T05:32:53.004Z,16.86
2022-10-28T05:35:23.257Z,17.11
2022-10-28T05:37:51.166Z,17.13
2022-10-28T05:40:20.489Z,17.08
2022-10-28T05:42:48.398Z,17.32
2022-10-28T05:45:17.160Z,17.23
2022-10-28T05:47:46.468Z,17.13
2022-10-28T05:50:16.533Z,16.84
2022-10-28T05:52:48.531Z,16.75
2022-10-28T05:55:19.403Z,16.68
2022-10-28T05:57:49.646Z,16.69
2022-10-28T06:00:21.228Z,16.80
2022-10-28T06:02:49.440Z,17.17
2022-10-28T06:05:17.754Z,17.08
2022-10-28T06:07:45.696Z,17.38
2022-10-28T06:10:14.037Z,17.41
2022-10-28T06:12:40.421Z,17.65
2022-10-28T06:15:10.576Z,17.68
2022-10-28T06:17:38.546Z,17.58
2022-10-28T06:20:07.172Z,17.45
2022-10-28T06:22:35.150Z,17.39
2022-10-28T06:25:03.416Z,17.58
2022-10-28T06:27:31.381Z,17.53
2022-10-28T06:29:59.314Z,17.61
2022-10-28T06:32:28.718Z,17.48
2022-10-28T06:34:57.079Z,17.42
2022-10-28T06:37:26.071Z,17.53
2022-10-28T06:39:54.795Z,17.55
2022-10-28T06:42:23.194Z,17.73
2022-10-28T06:44:51.175Z,17.63
2022-10-28T06:47:20.748Z,17.45
2022-10-28T06:49:50.056Z,17.27
2022-10-28T06:52:18.253Z,17.30
2022-10-28T06:54:46.171Z,17.41
2022-10-28T06:57:14.159Z,17.52
2022-10-28T06:59:42.126Z,17.73
2022-10-28T07:02:11.741Z,17.86
2022-10-28T07:04:39.986Z,17.94
2022-10-28T07:07:09.439Z,18.17
2022-10-28T07:09:39.572Z,18.35
2022-10-28T07:12:08.802Z,18.66
2022-10-28T07:14:36.961Z,18.79
2022-10-28T07:17:05.056Z,18.90
2022-10-28T07:19:33.059Z,18.94
2022-10-28T07:22:01.037Z,18.86
2022-10-28T07:24:30.333Z,18.89
2022-10-28T07:26:58.394Z,18.91
2022-10-28T07:29:26.492Z,18.89
2022-10-28T07:31:55.841Z,18.81
2022-10-28T07:34:26.920Z,18.90
2022-10-28T07:36:56.147Z,19.03
2022-10-28T07:39:24.237Z,19.07
2022-10-28T07:41:53.576Z,19.19
2022-10-28T07:44:21.509Z,19.26
2022-10-28T07:46:50.475Z,19.49
2022-10-28T07:49:20.003Z,19.53
2022-10-28T07:51:47.902Z,19.51
2022-10-28T07:54:15.995Z,19.55
2022-10-28T07:56:43.994Z,19.53
2022-10-28T07:59:13.284Z,19.56
2022-10-28T08:01:41.366Z,19.63
2022-10-28T08:04:09.361Z,19.63
2022-10-28T08:06:37.287Z,19.65
2022-10-28T08:09:05.353Z,19.70
2022-10-28T08:11:33.378Z,19.67
2022-10-28T08:14:03.544Z,19.71
2022-10-28T08:16:32.897Z,19.74
2022-10-28T08:19:03.995Z,19.81
2022-10-28T08:21:34.735Z,19.76
2022-10-28T08:24:02.706Z,19.81
2022-10-28T08:26:30.712Z,19.87
2022-10-28T08:29:01.458Z,19.86
2022-10-28T08:31:29.531Z,19.98
2022-10-28T08:33:58.793Z,20.03
2022-10-28T08:36:26.907Z,20.07
2022-10-28T08:38:54.773Z,20.01
2022-10-28T08:41:41.782Z,20.04
2022-10-28T08:44:47.335Z,20.07
2022-10-28T08:47:24.940Z,20.07
2022-10-28T08:49:57.712Z,20.04
2022-10-28T08:52:32.207Z,20.08
2022-10-28T08:55:06.093Z,20.29
2022-10-28T08:57:40.063Z,20.31
2022-10-28T09:00:10.508Z,20.43
2022-10-28T09:02:50.195Z,20.39
2022-10-28T09:05:23.912Z,20.22
2022-10-28T09:07:52.784Z,20.22
2022-10-28T09:10:37.512Z,20.32
2022-10-28T09:13:12.661Z,20.42
2022-10-28T09:15:48.149Z,20.70
2022-10-28T09:18:20.125Z,20.67
2022-10-28T09:20:54.046Z,20.74
2022-10-28T09:23:24.906Z,20.85
2022-10-28T09:26:03.488Z,20.77
2022-10-28T09:28:48.828Z,20.85
2022-10-28T09:31:25.785Z,20.84
2022-10-28T09:34:08.239Z,20.77
2022-10-28T09:36:40.915Z,20.80
2022-10-28T09:39:17.795Z,20.85
2022-10-28T09:41:49.044Z,20.85
2022-10-28T09:44:22.348Z,20.92
2022-10-28T09:46:55.015Z,20.97
2022-10-28T09:49:26.784Z,21.04
2022-10-28T09:52:01.622Z,21.09
2022-10-28T09:54:35.085Z,21.12
2022-10-28T09:57:04.086Z,21.17
2022-10-28T09:59:32.139Z,21.32
2022-10-28T10:02:00.273Z,21.26
2022-10-28T10:04:31.206Z,21.41
2022-10-28T10:07:06.984Z,21.52
2022-10-28T10:09:38.538Z,21.36
2022-10-28T10:12:09.726Z,21.53
2022-10-28T10:14:40.630Z,21.46
2022-10-28T10:17:15.986Z,21.49
2022-10-28T10:20:04.452Z,21.53
2022-10-28T10:22:35.595Z,21.63
2022-10-28T10:25:03.816Z,21.64
2022-10-28T10:27:32.661Z,21.74
2022-10-28T10:30:00.728Z,21.69
2022-10-28T10:32:31.199Z,21.83
2022-10-28T10:35:03.133Z,21.98
2022-10-28T10:37:34.823Z,21.93
2022-10-28T10:40:12.797Z,22.08
2022-10-28T10:42:51.653Z,22.22
2022-10-28T10:45:28.931Z,22.28
2022-10-28T10:48:14.194Z,22.49
2022-10-28T10:50:45.093Z,22.60
2022-10-28T10:53:22.124Z,22.84
2022-10-28T10:55:52.772Z,22.83
2022-10-28T10:58:23.154Z,22.77
2022-10-28T11:00:52.868Z,22.63
2022-10-28T11:03:24.384Z,22.64
2022-10-28T11:06:05.380Z,22.78
2022-10-28T11:08:46.037Z,22.81
2022-10-28T11:11:16.236Z,22.63
2022-10-28T11:13:46.213Z,22.97
2022-10-28T11:16:22.749Z,22.94
2022-10-28T11:18:52.907Z,22.95
2022-10-28T11:21:33.883Z,23.07
2022-10-28T11:24:18.162Z,23.22
2022-10-28T11:26:55.591Z,23.28
2022-10-28T11:29:23.818Z,23.19
2022-10-28T11:32:15.034Z,23.56
2022-10-28T11:35:10.978Z,23.43
2022-10-28T11:37:54.166Z,23.26
2022-10-28T11:40:35.423Z,23.30
2022-10-28T11:43:16.806Z,23.33
2022-10-28T11:45:51.464Z,23.33
2022-10-28T11:48:29.221Z,23.47
2022-10-28T11:51:08.070Z,23.43
2022-10-28T11:53:53.471Z,23.64
2022-10-28T11:56:35.012Z,23.53
2022-10-28T11:59:26.960Z,23.87
2022-10-28T12:02:07.714Z,23.81
2022-10-28T12:04:54.996Z,23.94
2022-10-28T12:07:44.339Z,24.01
2022-10-28T12:10:41.994Z,23.69
2022-10-28T12:13:21.039Z,23.71
2022-10-28T12:15:56.563Z,23.97
2022-10-28T12:18:33.609Z,24.15
2022-10-28T12:21:07.136Z,24.26
2022-10-28T12:23:38.539Z,24.33
2022-10-28T12:26:10.984Z,24.33
2022-10-28T12:28:44.794Z,24.46
2022-10-28T12:31:21.500Z,24.01
2022-10-28T12:33:52.263Z,23.94
2022-10-28T12:36:28.584Z,24.19
2022-10-28T12:39:01.883Z,23.87
2022-10-28T12:41:48.046Z,23.85
2022-10-28T12:44:20.698Z,24.01
2022-10-28T12:46:58.412Z,24.01
2022-10-28T12:49:37.234Z,23.89
2022-10-28T12:52:15.219Z,23.88
2022-10-28T12:54:53.889Z,23.84
2022-10-28T12:57:25.169Z,24.09
2022-10-28T12:59:59.869Z,24.30
2022-10-28T13:02:31.878Z,24.53
2022-10-28T13:04:59.998Z,24.80
2022-10-28T13:07:51.529Z,24.88
2022-10-28T13:10:30.434Z,24.78
2022-10-28T13:13:29.253Z,24.90
2022-10-28T13:16:18.272Z,24.91
2022-10-28T13:19:14.728Z,24.80
2022-10-28T13:22:14.047Z,25.19
2022-10-28T13:24:52.350Z,25.18
2022-10-28T13:27:22.018Z,24.95
2022-10-28T13:29:53.921Z,24.84
2022-10-28T13:32:37.360Z,24.71
2022-10-28T13:35:16.379Z,24.56
2022-10-28T13:37:48.846Z,24.28
2022-10-28T13:40:45.124Z,24.30
2022-10-28T13:43:21.926Z,24.16
2022-10-28T13:45:53.417Z,24.08
2022-10-28T13:48:47.981Z,24.02
2022-10-28T13:51:31.756Z,23.82
2022-10-28T13:54:00.203Z,23.95
2022-10-28T13:56:38.850Z,24.04
2022-10-28T13:59:22.188Z,24.06
2022-10-28T14:02:07.563Z,24.11
2022-10-28T14:04:43.970Z,24.08
2022-10-28T14:07:20.180Z,24.00
2022-10-28T14:09:50.025Z,24.08
2022-10-28T14:12:24.077Z,23.97
2022-10-28T14:14:58.726Z,23.93
2022-10-28T14:17:30.852Z,23.91
2022-10-28T14:19:58.987Z,23.85
2022-10-28T14:22:33.222Z,23.93
2022-10-28T14:25:01.539Z,23.74
2022-10-28T14:27:41.636Z,23.69
2022-10-28T14:30:21.345Z,23.60
2022-10-28T14:33:31.349Z,23.46
2022-10-28T14:36:12.203Z,23.41
2022-10-28T14:38:58.522Z,23.36
2022-10-28T14:42:03.080Z,23.29
2022-10-28T14:44:47.949Z,23.15
2022-10-28T14:47:37.499Z,23.25
2022-10-28T14:50:07.732Z,23.19
2022-10-28T14:52:38.297Z,23.12
2022-10-28T14:55:09.489Z,23.04
2022-10-28T14:57:37.379Z,23.00
2022-10-28T15:00:08.055Z,22.95
2022-10-28T15:02:39.128Z,22.91
2022-10-28T15:05:16.783Z,22.86
2022-10-28T15:07:45.295Z,22.94
2022-10-28T15:10:17.960Z,22.91
2022-10-28T15:12:48.950Z,22.84
2022-10-28T15:15:19.787Z,22.78
2022-10-28T15:17:49.494Z,22.67
2022-10-28T15:20:23.417Z,22.56
2022-10-28T15:22:51.852Z,22.42
2022-10-28T15:25:21.374Z,22.29
2022-10-28T15:27:53.406Z,22.33
2022-10-28T15:30:23.779Z,22.29
2022-10-28T15:32:54.407Z,22.31
2022-10-28T15:35:39.900Z,22.15
2022-10-28T15:38:32.072Z,22.18
2022-10-28T15:41:00.304Z,22.22
2022-10-28T15:43:29.476Z,22.12
2022-10-28T15:46:08.859Z,22.01
2022-10-28T15:48:38.692Z,22.00
2022-10-28T15:51:14.786Z,21.90
2022-10-28T15:53:44.997Z,21.94
2022-10-28T15:56:20.988Z,21.83
2022-10-28T15:59:20.936Z,21.84
2022-10-28T16:01:49.157Z,21.93
2022-10-28T16:04:45.462Z,22.05
2022-10-28T16:07:13.932Z,22.04
2022-10-28T16:09:46.715Z,22.02
2022-10-28T16:12:17.450Z,21.87
2022-10-28T16:14:49.289Z,21.73
2022-10-28T16:17:19.521Z,21.67
2022-10-28T16:19:54.537Z,21.73
2022-10-28T16:22:25.255Z,21.74
2022-10-28T16:27:39.726Z,21.64
2022-10-28T16:30:08.553Z,21.52
2022-10-28T16:32:39.367Z,21.34
2022-10-28T16:35:16.358Z,21.39
2022-10-28T16:37:46.591Z,21.31
2022-10-28T16:43:06.811Z,21.35
2022-10-28T16:45:35.856Z,21.34
2022-10-28T16:48:03.881Z,21.41
2022-10-28T16:50:33.212Z,21.31
2022-10-28T16:53:01.169Z,21.34
2022-10-28T16:55:30.176Z,21.22
2022-10-28T16:57:58.364Z,21.17
2022-10-28T17:00:26.360Z,21.11
2022-10-28T17:02:54.283Z,21.02
2022-10-28T17:05:23.831Z,21.04
2022-10-28T17:07:55.961Z,20.95
2022-10-28T17:10:29.593Z,20.84
2022-10-28T17:12:57.921Z,20.80
2022-10-28T17:15:29.052Z,20.81
2022-10-28T17:17:58.005Z,20.91
2022-10-28T17:20:26.003Z,20.95
2022-10-28T17:22:55.999Z,20.91
2022-10-28T17:25:24.190Z,20.85
2022-10-28T17:27:53.845Z,20.76
2022-10-28T17:30:22.445Z,20.67
2022-10-28T17:32:52.454Z,20.84
2022-10-28T17:35:21.905Z,20.80
2022-10-28T17:37:50.402Z,20.70
2022-10-28T17:40:19.806Z,20.49
2022-10-28T17:42:47.937Z,20.55
2022-10-28T17:45:19.422Z,20.55
2022-10-28T17:47:49.402Z,20.57
2022-10-28T17:50:17.870Z,20.55
2022-10-28T17:52:45.826Z,20.57
2022-10-28T17:55:13.665Z,20.45
2022-10-28T17:57:44.513Z,20.35
2022-10-28T18:00:14.702Z,20.26
2022-10-28T18:02:42.802Z,20.28
2022-10-28T18:05:11.146Z,20.20
2022-10-28T18:07:55.572Z,20.11
2022-10-28T18:10:54.964Z,20.01
2022-10-28T18:13:27.236Z,19.93
2022-10-28T18:15:55.489Z,20.05
2022-10-28T18:18:47.643Z,20.03
2022-10-28T18:21:19.078Z,19.98
2022-10-28T18:23:52.061Z,19.98
2022-10-28T18:26:21.867Z,19.94
2022-10-28T18:28:51.128Z,19.93
2022-10-28T18:31:20.896Z,19.98
2022-10-28T18:33:49.197Z,19.94
2022-10-28T18:36:19.040Z,19.94
2022-10-28T18:38:47.249Z,19.84
2022-10-28T18:41:16.694Z,19.90
2022-10-28T18:43:44.803Z,19.91
2022-10-28T18:46:15.852Z,19.78
2022-10-28T18:48:43.770Z,19.81
2022-10-28T18:51:13.673Z,19.94
2022-10-28T18:53:43.593Z,19.91
2022-10-28T18:56:13.291Z,19.91
2022-10-28T18:58:41.204Z,19.78
2022-10-28T19:01:11.439Z,19.76
2022-10-28T19:03:41.625Z,19.73
2022-10-28T19:06:12.679Z,19.78
2022-10-28T19:08:43.754Z,19.67
2022-10-28T19:11:13.418Z,19.80
2022-10-28T19:13:42.219Z,19.87
2022-10-28T19:18:45.105Z,19.69
2022-10-28T19:21:15.369Z,19.69
2022-10-28T19:23:44.425Z,19.76
2022-10-28T19:26:13.720Z,19.70
2022-10-28T19:28:43.386Z,19.42
2022-10-28T19:31:13.129Z,19.22
2022-10-28T19:33:43.191Z,19.14
2022-10-28T19:36:17.432Z,19.08
2022-10-28T19:38:46.327Z,19.11
2022-10-28T19:41:16.239Z,19.00
2022-10-28T19:43:44.254Z,19.01
2022-10-28T19:46:14.170Z,18.90
2022-10-28T19:48:44.060Z,19.10
2022-10-28T19:51:16.360Z,19.08
2022-10-28T19:53:48.996Z,19.08
2022-10-28T19:56:19.091Z,19.14
2022-10-28T19:58:52.053Z,19.03
2022-10-28T20:01:21.768Z,19.00
2022-10-28T20:03:51.288Z,18.96
2022-10-28T20:06:22.137Z,18.94
2022-10-28T20:08:50.375Z,18.86
2022-10-28T20:11:24.790Z,18.83
2022-10-28T20:13:55.513Z,18.97
2022-10-28T20:16:24.697Z,18.89
2022-10-28T20:18:52.665Z,18.94
2022-10-28T20:21:23.310Z,18.87
2022-10-28T20:23:54.217Z,18.81
2022-10-28T20:26:24.679Z,18.74
2022-10-28T20:28:53.000Z,18.69
2022-10-28T20:31:23.374Z,18.65
2022-10-28T20:33:52.879Z,18.57
2022-10-28T20:36:25.563Z,18.60
2022-10-28T20:38:57.305Z,18.65
2022-10-28T20:41:26.662Z,18.60
2022-10-28T20:43:55.124Z,18.60
2022-10-28T20:46:24.517Z,18.56
2022-10-28T20:48:54.132Z,18.53
2022-10-28T20:51:23.933Z,18.55
2022-10-28T20:53:51.996Z,18.49
2022-10-28T20:56:22.191Z,18.44
2022-10-28T20:58:50.432Z,18.42
2022-10-28T21:01:21.266Z,18.57
2022-10-28T21:03:49.771Z,18.56
2022-10-28T21:06:18.302Z,18.52
2022-10-28T21:08:47.947Z,18.49
2022-10-28T21:11:17.295Z,18.51
2022-10-28T21:13:46.743Z,18.51
2022-10-28T21:16:14.962Z,18.32
2022-10-28T21:18:42.872Z,18.31
2022-10-28T21:21:12.122Z,18.29
2022-10-28T21:23:42.152Z,18.28
2022-10-28T21:26:12.784Z,18.34
2022-10-28T21:28:42.336Z,18.31
2022-10-28T21:31:11.951Z,18.31
2022-10-28T21:33:40.674Z,18.28
2022-10-28T21:36:12.137Z,18.29
2022-10-28T21:38:41.548Z,18.20
2022-10-28T21:41:14.169Z,18.24
2022-10-28T21:43:44.022Z,18.18
2022-10-28T21:46:11.754Z,18.24
2022-10-28T21:48:40.031Z,18.21
2022-10-28T21:51:13.467Z,18.28
2022-10-28T21:53:43.568Z,18.32
2022-10-28T21:56:17.730Z,18.38
2022-10-28T21:58:47.324Z,18.32
2022-10-28T22:01:17.661Z,18.41
2022-10-28T22:03:45.898Z,18.42
2022-10-28T22:06:14.158Z,18.37
2022-10-28T22:08:42.681Z,18.27
2022-10-28T22:11:14.701Z,18.14
2022-10-28T22:13:43.096Z,18.05
2022-10-28T22:16:13.114Z,17.89
2022-10-28T22:18:41.432Z,17.80
2022-10-28T22:21:12.401Z,17.76
2022-10-28T22:23:40.868Z,17.75
2022-10-28T22:26:11.283Z,17.63
2022-10-28T22:28:41.311Z,17.63
2022-10-28T22:31:12.797Z,17.61
2022-10-28T22:33:40.643Z,17.58
2022-10-28T22:36:10.895Z,17.46
2022-10-28T22:38:39.342Z,17.42
2022-10-28T22:41:08.756Z,17.35
2022-10-28T22:43:36.783Z,17.34
2022-10-28T22:46:06.742Z,17.31
2022-10-28T22:48:36.090Z,17.25
2022-10-28T22:51:04.878Z,17.25
2022-10-28T22:53:32.993Z,17.32
2022-10-28T22:56:00.873Z,17.38
2022-10-28T22:58:29.248Z,17.42
2022-10-28T23:01:07.707Z,17.39
2022-10-28T23:03:37.552Z,17.39
2022-10-28T23:06:05.711Z,17.42
2022-10-28T23:08:34.230Z,17.42
2022-10-28T23:11:02.199Z,17.42
2022-10-28T23:13:30.285Z,17.42
2022-10-28T23:15:58.190Z,17.27
2022-10-28T23:18:29.176Z,17.28
2022-10-28T23:20:57.167Z,17.25
2022-10-28T23:23:25.022Z,17.21
2022-10-28T23:25:53.876Z,17.15
2022-10-28T23:28:21.867Z,17.15
2022-10-28T23:30:50.031Z,17.17
2022-10-28T23:33:18.008Z,17.14
2022-10-28T23:35:54.785Z,17.14
2022-10-28T23:38:22.897Z,17.31
2022-10-28T23:40:58.569Z,17.32
2022-10-28T23:43:27.201Z,17.34
2022-10-28T23:45:55.500Z,17.25
2022-10-28T23:48:24.004Z,17.27
2022-10-28T23:50:53.389Z,17.20
2022-10-28T23:53:22.034Z,17.14
2022-10-28T23:55:51.434Z,17.07
2022-10-28T23:58:20.977Z,17.02
